Terminal Aerodrome Forecast
Issued by NWS

Home | Current Version | Previous Version | Text Only | Print | Product List | Glossary On
Versions: 1 2 3 4 5 6 7 8 9 10 11 12 13 14
838
FTUS42 KFFC 281730
TAFRYY
TAF
KRYY 281730Z 2818/2918 27010KT P6SM -RA SCT025 BKN050
      TEMPO 2818/2822 VRB18G24KT 4SM TSRA BKN025CB
     FM282200 27009KT P6SM VCSH SCT030 BKN080
     FM290300 24006KT P6SM VCSH OVC010
     FM291000 28009KT P6SM OVC008
     FM291400 31010G18KT P6SM SCT030=

USA.gov is the U.S. government's official web portal to all federal, state and local government web resources and services.